sensor_id;sensor_type;location;lat;lon;timestamp;pressure;altitude;pressure_sealevel;temperature;humidity
9141;BME280;46330;50.822;7.126;2022-08-19T00:01:51;100624.25;;;19.10;79.64
9141;BME280;46330;50.822;7.126;2022-08-19T00:04:22;100632.97;;;19.12;79.64
9141;BME280;46330;50.822;7.126;2022-08-19T00:06:51;100631.34;;;19.09;79.49
9141;BME280;46330;50.822;7.126;2022-08-19T00:09:21;100621.88;;;19.05;79.82
9141;BME280;46330;50.822;7.126;2022-08-19T00:11:51;100625.69;;;19.00;80.32
9141;BME280;46330;50.822;7.126;2022-08-19T00:14:22;100625.84;;;18.97;80.47
9141;BME280;46330;50.822;7.126;2022-08-19T00:16:52;100635.75;;;18.93;80.86
9141;BME280;46330;50.822;7.126;2022-08-19T00:19:22;100635.16;;;18.88;80.77
9141;BME280;46330;50.822;7.126;2022-08-19T00:21:50;100639.72;;;18.86;80.79
9141;BME280;46330;50.822;7.126;2022-08-19T00:24:18;100636.19;;;18.86;81.24
9141;BME280;46330;50.822;7.126;2022-08-19T00:26:46;100640.63;;;18.85;81.22
9141;BME280;46330;50.822;7.126;2022-08-19T00:29:18;100641.41;;;18.87;81.00
9141;BME280;46330;50.822;7.126;2022-08-19T00:31:46;100635.44;;;18.84;80.98
9141;BME280;46330;50.822;7.126;2022-08-19T00:34:16;100636.41;;;18.81;80.98
9141;BME280;46330;50.822;7.126;2022-08-19T00:36:44;100629.66;;;18.75;81.34
9141;BME280;46330;50.822;7.126;2022-08-19T00:39:14;100632.97;;;18.63;81.78
9141;BME280;46330;50.822;7.126;2022-08-19T00:41:43;100635.94;;;18.57;82.31
9141;BME280;46330;50.822;7.126;2022-08-19T00:44:17;100643.72;;;18.60;81.99
9141;BME280;46330;50.822;7.126;2022-08-19T00:46:54;100642.16;;;18.56;82.13
9141;BME280;46330;50.822;7.126;2022-08-19T00:49:28;100639.13;;;18.64;81.82
9141;BME280;46330;50.822;7.126;2022-08-19T00:52:01;100641.50;;;18.68;81.96
9141;BME280;46330;50.822;7.126;2022-08-19T00:54:31;100641.50;;;18.68;82.09
9141;BME280;46330;50.822;7.126;2022-08-19T00:57:01;100649.56;;;18.67;81.77
9141;BME280;46330;50.822;7.126;2022-08-19T00:59:35;100647.84;;;18.49;83.44
9141;BME280;46330;50.822;7.126;2022-08-19T01:02:25;100646.59;;;18.39;84.25
9141;BME280;46330;50.822;7.126;2022-08-19T01:04:54;100650.25;;;18.36;83.95
9141;BME280;46330;50.822;7.126;2022-08-19T01:07:23;100650.00;;;18.41;83.85
9141;BME280;46330;50.822;7.126;2022-08-19T01:09:51;100646.91;;;18.50;83.49
9141;BME280;46330;50.822;7.126;2022-08-19T01:12:20;100650.44;;;18.50;82.92
9141;BME280;46330;50.822;7.126;2022-08-19T01:14:50;100646.84;;;18.51;83.16
9141;BME280;46330;50.822;7.126;2022-08-19T01:17:19;100634.53;;;18.50;82.92
9141;BME280;46330;50.822;7.126;2022-08-19T01:19:48;100637.25;;;18.49;82.98
9141;BME280;46330;50.822;7.126;2022-08-19T01:22:19;100629.94;;;18.37;83.62
9141;BME280;46330;50.822;7.126;2022-08-19T01:24:58;100622.81;;;18.37;84.18
9141;BME280;46330;50.822;7.126;2022-08-19T01:27:26;100625.72;;;18.33;83.71
9141;BME280;46330;50.822;7.126;2022-08-19T01:30:12;100622.53;;;18.26;84.23
9141;BME280;46330;50.822;7.126;2022-08-19T01:32:41;100630.94;;;18.17;84.51
9141;BME280;46330;50.822;7.126;2022-08-19T01:35:11;100629.31;;;18.14;84.87
9141;BME280;46330;50.822;7.126;2022-08-19T01:37:43;100618.88;;;18.11;84.94
9141;BME280;46330;50.822;7.126;2022-08-19T01:40:14;100616.13;;;18.13;84.88
9141;BME280;46330;50.822;7.126;2022-08-19T01:42:42;100617.75;;;18.15;85.05
9141;BME280;46330;50.822;7.126;2022-08-19T01:45:10;100617.91;;;18.12;85.28
9141;BME280;46330;50.822;7.126;2022-08-19T01:47:38;100619.34;;;18.02;85.71
9141;BME280;46330;50.822;7.126;2022-08-19T01:50:08;100618.06;;;17.92;86.28
9141;BME280;46330;50.822;7.126;2022-08-19T01:52:37;100621.66;;;17.91;86.76
9141;BME280;46330;50.822;7.126;2022-08-19T01:55:08;100624.53;;;17.87;87.08
9141;BME280;46330;50.822;7.126;2022-08-19T01:57:39;100631.13;;;17.78;87.38
9141;BME280;46330;50.822;7.126;2022-08-19T02:00:13;100624.28;;;17.74;87.90
9141;BME280;46330;50.822;7.126;2022-08-19T02:02:42;100629.78;;;17.69;88.08
9141;BME280;46330;50.822;7.126;2022-08-19T02:05:11;100640.94;;;17.76;87.85
9141;BME280;46330;50.822;7.126;2022-08-19T02:07:40;100633.69;;;17.80;87.87
9141;BME280;46330;50.822;7.126;2022-08-19T02:10:12;100637.81;;;17.85;87.25
9141;BME280;46330;50.822;7.126;2022-08-19T02:12:44;100631.47;;;17.89;86.95
9141;BME280;46330;50.822;7.126;2022-08-19T02:15:13;100628.41;;;17.97;86.63
9141;BME280;46330;50.822;7.126;2022-08-19T02:17:41;100622.97;;;18.00;86.55
9141;BME280;46330;50.822;7.126;2022-08-19T02:20:10;100616.00;;;17.99;86.28
9141;BME280;46330;50.822;7.126;2022-08-19T02:22:39;100615.13;;;17.98;85.90
9141;BME280;46330;50.822;7.126;2022-08-19T02:25:09;100604.75;;;17.94;86.49
9141;BME280;46330;50.822;7.126;2022-08-19T02:27:37;100611.91;;;17.92;86.33
9141;BME280;46330;50.822;7.126;2022-08-19T02:30:11;100619.41;;;17.84;86.68
9141;BME280;46330;50.822;7.126;2022-08-19T02:32:40;100616.91;;;17.81;86.96
9141;BME280;46330;50.822;7.126;2022-08-19T02:35:20;100627.50;;;17.81;87.24
9141;BME280;46330;50.822;7.126;2022-08-19T02:37:48;100626.47;;;17.83;87.30
9141;BME280;46330;50.822;7.126;2022-08-19T02:40:34;100634.47;;;17.82;87.67
9141;BME280;46330;50.822;7.126;2022-08-19T02:43:03;100636.72;;;17.72;87.71
9141;BME280;46330;50.822;7.126;2022-08-19T02:45:35;100633.50;;;17.65;88.38
9141;BME280;46330;50.822;7.126;2022-08-19T02:48:07;100639.81;;;17.63;88.62
9141;BME280;46330;50.822;7.126;2022-08-19T02:50:47;100637.81;;;17.49;89.60
9141;BME280;46330;50.822;7.126;2022-08-19T02:53:19;100623.78;;;17.47;89.90
9141;BME280;46330;50.822;7.126;2022-08-19T02:55:50;100626.28;;;17.50;89.71
9141;BME280;46330;50.822;7.126;2022-08-19T02:58:20;100644.53;;;17.56;89.43
9141;BME280;46330;50.822;7.126;2022-08-19T03:00:54;100640.19;;;17.55;89.39
9141;BME280;46330;50.822;7.126;2022-08-19T03:03:22;100641.97;;;17.55;89.22
9141;BME280;46330;50.822;7.126;2022-08-19T03:05:51;100635.06;;;17.51;89.90
9141;BME280;46330;50.822;7.126;2022-08-19T03:08:23;100638.94;;;17.44;90.25
9141;BME280;46330;50.822;7.126;2022-08-19T03:10:52;100640.03;;;17.40;90.29
9141;BME280;46330;50.822;7.126;2022-08-19T03:13:21;100636.56;;;17.38;90.26
9141;BME280;46330;50.822;7.126;2022-08-19T03:15:51;100638.94;;;17.44;90.09
9141;BME280;46330;50.822;7.126;2022-08-19T03:18:19;100639.88;;;17.43;90.03
9141;BME280;46330;50.822;7.126;2022-08-19T03:20:50;100645.03;;;17.46;89.45
9141;BME280;46330;50.822;7.126;2022-08-19T03:23:21;100642.22;;;17.49;89.30
9141;BME280;46330;50.822;7.126;2022-08-19T03:25:52;100638.63;;;17.50;89.21
9141;BME280;46330;50.822;7.126;2022-08-19T03:28:29;100645.59;;;17.52;89.05
9141;BME280;46330;50.822;7.126;2022-08-19T03:31:00;100650.03;;;17.52;88.61
9141;BME280;46330;50.822;7.126;2022-08-19T03:33:30;100644.16;;;17.45;89.19
9141;BME280;46330;50.822;7.126;2022-08-19T03:36:06;100653.00;;;17.44;89.35
9141;BME280;46330;50.822;7.126;2022-08-19T03:38:36;100650.03;;;17.33;89.94
9141;BME280;46330;50.822;7.126;2022-08-19T03:41:06;100660.66;;;17.32;90.14
9141;BME280;46330;50.822;7.126;2022-08-19T03:43:36;100650.03;;;17.33;90.30
9141;BME280;46330;50.822;7.126;2022-08-19T03:46:08;100657.97;;;17.33;90.07
9141;BME280;46330;50.822;7.126;2022-08-19T03:48:37;100657.88;;;17.35;90.04
9141;BME280;46330;50.822;7.126;2022-08-19T03:51:06;100657.66;;;17.39;89.77
9141;BME280;46330;50.822;7.126;2022-08-19T03:53:35;100656.91;;;17.37;89.49
9141;BME280;46330;50.822;7.126;2022-08-19T03:56:03;100655.31;;;17.33;89.80
9141;BME280;46330;50.822;7.126;2022-08-19T03:58:31;100660.66;;;17.32;90.00
9141;BME280;46330;50.822;7.126;2022-08-19T04:00:59;100656.38;;;17.29;90.21
9141;BME280;46330;50.822;7.126;2022-08-19T04:03:28;100652.88;;;17.29;90.03
9141;BME280;46330;50.822;7.126;2022-08-19T04:05:56;100648.69;;;17.25;90.03
9141;BME280;46330;50.822;7.126;2022-08-19T04:08:24;100657.44;;;17.25;90.23
9141;BME280;46330;50.822;7.126;2022-08-19T04:10:52;100653.88;;;17.26;90.15
9141;BME280;46330;50.822;7.126;2022-08-19T04:13:20;100664.41;;;17.28;90.37
9141;BME280;46330;50.822;7.126;2022-08-19T04:15:48;100660.94;;;17.26;90.41
9141;BME280;46330;50.822;7.126;2022-08-19T04:18:16;100665.38;;;17.25;90.57
9141;BME280;46330;50.822;7.126;2022-08-19T04:20:46;100669.69;;;17.28;90.34
9141;BME280;46330;50.822;7.126;2022-08-19T04:23:15;100676.19;;;17.20;90.74
9141;BME280;46330;50.822;7.126;2022-08-19T04:25:44;100672.53;;;17.23;90.58
9141;BME280;46330;50.822;7.126;2022-08-19T04:28:13;100667.19;;;17.25;90.35
9141;BME280;46330;50.822;7.126;2022-08-19T04:30:43;100677.81;;;17.23;90.44
9141;BME280;46330;50.822;7.126;2022-08-19T04:33:12;100679.97;;;17.15;90.78
9141;BME280;46330;50.822;7.126;2022-08-19T04:35:47;100673.09;;;17.11;91.05
9141;BME280;46330;50.822;7.126;2022-08-19T04:38:16;100672.19;;;17.12;91.42
9141;BME280;46330;50.822;7.126;2022-08-19T04:40:46;100674.81;;;17.12;91.26
9141;BME280;46330;50.822;7.126;2022-08-19T04:43:32;100669.53;;;17.12;91.41
9141;BME280;46330;50.822;7.126;2022-08-19T04:46:04;100674.00;;;17.10;91.24
9141;BME280;46330;50.822;7.126;2022-08-19T04:48:33;100672.94;;;17.14;91.10
9141;BME280;46330;50.822;7.126;2022-08-19T04:51:12;100678.03;;;17.18;90.87
9141;BME280;46330;50.822;7.126;2022-08-19T04:53:41;100682.38;;;17.19;90.95
9141;BME280;46330;50.822;7.126;2022-08-19T04:56:12;100690.16;;;17.23;91.34
9141;BME280;46330;50.822;7.126;2022-08-19T04:58:42;100689.41;;;17.20;91.20
9141;BME280;46330;50.822;7.126;2022-08-19T05:01:12;100695.69;;;17.18;91.17
9141;BME280;46330;50.822;7.126;2022-08-19T05:03:40;100695.88;;;17.13;91.54
9141;BME280;46330;50.822;7.126;2022-08-19T05:06:12;100697.53;;;17.16;91.59
9141;BME280;46330;50.822;7.126;2022-08-19T05:08:42;100699.25;;;17.17;91.47
9141;BME280;46330;50.822;7.126;2022-08-19T05:11:13;100700.97;;;17.18;91.37
9141;BME280;46330;50.822;7.126;2022-08-19T05:13:42;100701.56;;;17.25;90.77
9141;BME280;46330;50.822;7.126;2022-08-19T05:16:11;100705.47;;;17.35;90.44
9141;BME280;46330;50.822;7.126;2022-08-19T05:18:40;100698.84;;;17.45;89.86
9141;BME280;46330;50.822;7.126;2022-08-19T05:21:27;100708.09;;;17.55;89.08
9141;BME280;46330;50.822;7.126;2022-08-19T05:24:13;100704.38;;;17.59;88.85
9141;BME280;46330;50.822;7.126;2022-08-19T05:26:42;100708.38;;;17.67;88.63
9141;BME280;46330;50.822;7.126;2022-08-19T05:29:14;100708.00;;;17.75;88.22
9141;BME280;46330;50.822;7.126;2022-08-19T05:31:42;100719.16;;;17.82;88.19
9141;BME280;46330;50.822;7.126;2022-08-19T05:34:11;100710.91;;;17.88;87.72
9141;BME280;46330;50.822;7.126;2022-08-19T05:36:48;100712.34;;;17.95;87.12
9141;BME280;46330;50.822;7.126;2022-08-19T05:39:19;100716.63;;;17.97;87.10
9141;BME280;46330;50.822;7.126;2022-08-19T05:41:50;100708.53;;;18.00;87.15
9141;BME280;46330;50.822;7.126;2022-08-19T05:44:19;100717.34;;;18.01;87.23
9141;BME280;46330;50.822;7.126;2022-08-19T05:46:48;100712.59;;;18.07;87.66
9141;BME280;46330;50.822;7.126;2022-08-19T05:49:20;100715.88;;;18.12;87.20
9141;BME280;46330;50.822;7.126;2022-08-19T05:51:50;100715.41;;;18.21;87.03
9141;BME280;46330;50.822;7.126;2022-08-19T05:54:18;100721.38;;;18.26;87.49
9141;BME280;46330;50.822;7.126;2022-08-19T05:56:46;100725.44;;;18.34;87.25
9141;BME280;46330;50.822;7.126;2022-08-19T05:59:16;100726.66;;;18.44;87.51
9141;BME280;46330;50.822;7.126;2022-08-19T06:01:45;100715.56;;;18.54;86.91
9141;BME280;46330;50.822;7.126;2022-08-19T06:04:17;100715.97;;;18.64;86.43
9141;BME280;46330;50.822;7.126;2022-08-19T06:06:46;100707.53;;;18.73;86.62
9141;BME280;46330;50.822;7.126;2022-08-19T06:09:15;100713.22;;;18.83;86.12
9141;BME280;46330;50.822;7.126;2022-08-19T06:11:45;100717.28;;;18.90;85.81
9141;BME280;46330;50.822;7.126;2022-08-19T06:14:16;100716.84;;;18.97;85.14
9141;BME280;46330;50.822;7.126;2022-08-19T06:16:53;100721.13;;;19.00;85.85
9141;BME280;46330;50.822;7.126;2022-08-19T06:19:22;100720.03;;;19.21;84.98
9141;BME280;46330;50.822;7.126;2022-08-19T06:21:52;100716.41;;;19.22;84.53
9141;BME280;46330;50.822;7.126;2022-08-19T06:24:23;100723.09;;;19.29;84.79
9141;BME280;46330;50.822;7.126;2022-08-19T06:26:53;100719.47;;;19.47;83.77
9141;BME280;46330;50.822;7.126;2022-08-19T06:29:28;100708.47;;;19.70;83.03
9141;BME280;46330;50.822;7.126;2022-08-19T06:31:58;100718.75;;;19.92;81.94
9141;BME280;46330;50.822;7.126;2022-08-19T06:34:28;100720.34;;;20.10;80.42
9141;BME280;46330;50.822;7.126;2022-08-19T06:36:58;100726.88;;;20.50;79.52
9141;BME280;46330;50.822;7.126;2022-08-19T06:39:32;100734.28;;;20.45;79.36
9141;BME280;46330;50.822;7.126;2022-08-19T06:42:02;100727.75;;;20.51;79.16
9141;BME280;46330;50.822;7.126;2022-08-19T06:44:35;100725.75;;;20.84;77.63
9141;BME280;46330;50.822;7.126;2022-08-19T06:47:11;100730.22;;;20.98;77.70
9141;BME280;46330;50.822;7.126;2022-08-19T06:49:49;100733.66;;;21.00;77.58
9141;BME280;46330;50.822;7.126;2022-08-19T06:52:16;100733.03;;;20.80;78.35
9141;BME280;46330;50.822;7.126;2022-08-19T06:54:46;100733.75;;;20.54;79.88
9141;BME280;46330;50.822;7.126;2022-08-19T06:57:23;100739.38;;;20.64;79.66
9141;BME280;46330;50.822;7.126;2022-08-19T06:59:51;100735.50;;;20.69;79.31
9141;BME280;46330;50.822;7.126;2022-08-19T07:02:20;100744.50;;;20.67;79.32
9141;BME280;46330;50.822;7.126;2022-08-19T07:04:52;100738.47;;;20.79;78.90
9141;BME280;46330;50.822;7.126;2022-08-19T07:07:23;100745.53;;;21.08;77.70
9141;BME280;46330;50.822;7.126;2022-08-19T07:09:52;100743.06;;;21.05;77.35
9141;BME280;46330;50.822;7.126;2022-08-19T07:12:27;100745.84;;;21.18;76.85
9141;BME280;46330;50.822;7.126;2022-08-19T07:14:58;100749.00;;;21.38;75.64
9141;BME280;46330;50.822;7.126;2022-08-19T07:17:27;100752.69;;;21.64;75.06
9141;BME280;46330;50.822;7.126;2022-08-19T07:19:56;100744.34;;;21.42;75.06
9141;BME280;46330;50.822;7.126;2022-08-19T07:22:31;100755.16;;;21.67;74.75
9141;BME280;46330;50.822;7.126;2022-08-19T07:25:02;100755.34;;;21.78;74.55
9141;BME280;46330;50.822;7.126;2022-08-19T07:27:31;100754.84;;;21.86;73.68
9141;BME280;46330;50.822;7.126;2022-08-19T07:29:59;100757.00;;;22.08;72.88
9141;BME280;46330;50.822;7.126;2022-08-19T07:32:27;100760.38;;;21.97;72.87
9141;BME280;46330;50.822;7.126;2022-08-19T07:34:58;100769.63;;;22.45;71.31
9141;BME280;46330;50.822;7.126;2022-08-19T07:37:27;100767.13;;;22.56;71.02
9141;BME280;46330;50.822;7.126;2022-08-19T07:39:59;100778.31;;;22.75;70.46
9141;BME280;46330;50.822;7.126;2022-08-19T07:42:28;100774.78;;;22.87;70.09
9141;BME280;46330;50.822;7.126;2022-08-19T07:44:57;100777.94;;;23.32;68.31
9141;BME280;46330;50.822;7.126;2022-08-19T07:47:25;100770.97;;;23.67;67.09
9141;BME280;46330;50.822;7.126;2022-08-19T07:50:15;100782.06;;;23.74;65.61
9141;BME280;46330;50.822;7.126;2022-08-19T07:52:45;100779.59;;;23.83;65.82
9141;BME280;46330;50.822;7.126;2022-08-19T07:55:16;100776.00;;;24.08;64.73
9141;BME280;46330;50.822;7.126;2022-08-19T07:58:06;100781.97;;;23.88;64.90
9141;BME280;46330;50.822;7.126;2022-08-19T08:00:36;100773.50;;;23.94;64.33
9141;BME280;46330;50.822;7.126;2022-08-19T08:03:04;100776.44;;;24.38;63.39
9141;BME280;46330;50.822;7.126;2022-08-19T08:05:32;100791.44;;;24.99;61.47
9141;BME280;46330;50.822;7.126;2022-08-19T08:08:17;100779.16;;;25.65;59.12
9141;BME280;46330;50.822;7.126;2022-08-19T08:11:15;100787.72;;;25.35;59.14
9141;BME280;46330;50.822;7.126;2022-08-19T08:13:48;100788.84;;;26.10;56.90
9141;BME280;46330;50.822;7.126;2022-08-19T08:16:33;100787.09;;;26.32;56.50
9141;BME280;46330;50.822;7.126;2022-08-19T08:19:06;100789.91;;;25.30;57.87
9141;BME280;46330;50.822;7.126;2022-08-19T08:21:49;100785.59;;;25.51;57.77
9141;BME280;46330;50.822;7.126;2022-08-19T08:24:18;100789.91;;;25.41;57.97
9141;BME280;46330;50.822;7.126;2022-08-19T08:26:46;100781.22;;;25.61;57.49
9141;BME280;46330;50.822;7.126;2022-08-19T08:29:23;100786.31;;;25.87;56.65
9141;BME280;46330;50.822;7.126;2022-08-19T08:32:00;100785.44;;;26.08;56.02
9141;BME280;46330;50.822;7.126;2022-08-19T08:34:29;100790.09;;;25.84;56.34
9141;BME280;46330;50.822;7.126;2022-08-19T08:36:57;100786.22;;;26.74;53.53
9141;BME280;46330;50.822;7.126;2022-08-19T08:39:25;100791.19;;;26.79;52.64
9141;BME280;46330;50.822;7.126;2022-08-19T08:41:57;100792.34;;;26.33;53.94
9141;BME280;46330;50.822;7.126;2022-08-19T08:44:58;100795.03;;;26.97;52.07
9141;BME280;46330;50.822;7.126;2022-08-19T08:47:29;100800.59;;;27.46;50.03
9141;BME280;46330;50.822;7.126;2022-08-19T08:50:02;100798.91;;;27.04;51.21
9141;BME280;46330;50.822;7.126;2022-08-19T08:52:33;100797.47;;;28.02;48.86
9141;BME280;46330;50.822;7.126;2022-08-19T08:55:08;100799.47;;;28.09;48.97
9141;BME280;46330;50.822;7.126;2022-08-19T08:57:46;100805.06;;;28.56;47.00
9141;BME280;46330;50.822;7.126;2022-08-19T09:00:22;100795.03;;;28.58;47.44
9141;BME280;46330;50.822;7.126;2022-08-19T09:02:50;100789.16;;;28.14;48.40
9141;BME280;46330;50.822;7.126;2022-08-19T09:05:20;100795.59;;;29.00;46.11
9141;BME280;46330;50.822;7.126;2022-08-19T09:07:57;100791.00;;;28.14;47.72
9141;BME280;46330;50.822;7.126;2022-08-19T09:10:32;100790.19;;;28.33;47.46
9141;BME280;46330;50.822;7.126;2022-08-19T09:13:14;100793.59;;;28.44;46.78
9141;BME280;46330;50.822;7.126;2022-08-19T09:15:52;100798.59;;;28.87;46.41
9141;BME280;46330;50.822;7.126;2022-08-19T09:18:22;100798.78;;;28.17;47.63
9141;BME280;46330;50.822;7.126;2022-08-19T09:20:55;100793.63;;;29.02;45.76
9141;BME280;46330;50.822;7.126;2022-08-19T09:23:23;100787.25;;;27.96;46.81
9141;BME280;46330;50.822;7.126;2022-08-19T09:25:52;100792.78;;;28.82;45.62
9141;BME280;46330;50.822;7.126;2022-08-19T09:28:20;100793.94;;;28.70;44.74
9141;BME280;46330;50.822;7.126;2022-08-19T09:30:54;100782.19;;;29.46;42.36
9141;BME280;46330;50.822;7.126;2022-08-19T09:33:22;100798.09;;;29.40;43.42
9141;BME280;46330;50.822;7.126;2022-08-19T09:35:50;100794.72;;;29.28;43.46
9141;BME280;46330;50.822;7.126;2022-08-19T09:38:19;100789.00;;;30.14;41.60
9141;BME280;46330;50.822;7.126;2022-08-19T09:40:48;100798.53;;;30.09;41.52
9141;BME280;46330;50.822;7.126;2022-08-19T09:43:17;100788.75;;;30.53;40.13
9141;BME280;46330;50.822;7.126;2022-08-19T09:46:01;100787.06;;;30.69;39.51
9141;BME280;46330;50.822;7.126;2022-08-19T09:48:29;100788.19;;;31.20;39.25
9141;BME280;46330;50.822;7.126;2022-08-19T09:51:02;100780.16;;;30.22;40.09
9141;BME280;46330;50.822;7.126;2022-08-19T09:53:30;100781.44;;;31.24;38.41
9141;BME280;46330;50.822;7.126;2022-08-19T09:55:59;100786.25;;;31.64;37.94
9141;BME280;46330;50.822;7.126;2022-08-19T09:58:29;100780.78;;;31.81;36.90
9141;BME280;46330;50.822;7.126;2022-08-19T10:00:58;100786.44;;;31.62;36.96
9141;BME280;46330;50.822;7.126;2022-08-19T10:03:29;100792.84;;;32.37;36.77
9141;BME280;46330;50.822;7.126;2022-08-19T10:06:00;100779.28;;;32.45;36.30
9141;BME280;46330;50.822;7.126;2022-08-19T10:08:32;100780.16;;;32.45;36.27
9141;BME280;46330;50.822;7.126;2022-08-19T10:11:00;100776.63;;;32.61;35.64
9141;BME280;46330;50.822;7.126;2022-08-19T10:13:49;100788.59;;;31.51;38.12
9141;BME280;46330;50.822;7.126;2022-08-19T10:16:19;100777.78;;;32.42;36.34
9141;BME280;46330;50.822;7.126;2022-08-19T10:18:53;100779.97;;;30.68;40.10
9141;BME280;46330;50.822;7.126;2022-08-19T10:21:26;100771.88;;;31.97;37.90
9141;BME280;46330;50.822;7.126;2022-08-19T10:24:00;100783.34;;;31.31;38.50
9141;BME280;46330;50.822;7.126;2022-08-19T10:26:33;100772.13;;;30.30;40.79
9141;BME280;46330;50.822;7.126;2022-08-19T10:29:03;100767.25;;;31.81;38.40
9141;BME280;46330;50.822;7.126;2022-08-19T10:31:34;100760.50;;;32.52;36.60
9141;BME280;46330;50.822;7.126;2022-08-19T10:34:24;100765.41;;;32.40;36.59
9141;BME280;46330;50.822;7.126;2022-08-19T10:36:54;100760.53;;;30.47;39.40
9141;BME280;46330;50.822;7.126;2022-08-19T10:39:28;100748.13;;;29.55;41.85
9141;BME280;46330;50.822;7.126;2022-08-19T10:41:58;100756.28;;;31.49;38.03
9141;BME280;46330;50.822;7.126;2022-08-19T10:44:26;100762.16;;;31.44;37.20
9141;BME280;46330;50.822;7.126;2022-08-19T10:46:58;100765.41;;;29.89;40.19
9141;BME280;46330;50.822;7.126;2022-08-19T10:49:28;100759.66;;;30.64;38.86
9141;BME280;46330;50.822;7.126;2022-08-19T10:51:56;100755.41;;;30.79;38.24
9141;BME280;46330;50.822;7.126;2022-08-19T10:54:45;100753.47;;;31.67;35.95
9141;BME280;46330;50.822;7.126;2022-08-19T10:57:34;100751.34;;;31.44;36.46
9141;BME280;46330;50.822;7.126;2022-08-19T11:00:23;100750.59;;;30.48;37.94
9141;BME280;46330;50.822;7.126;2022-08-19T11:02:52;100747.13;;;29.83;39.63
9141;BME280;46330;50.822;7.126;2022-08-19T11:05:21;100750.59;;;30.20;38.91
9141;BME280;46330;50.822;7.126;2022-08-19T11:07:50;100744.59;;;30.79;37.51
9141;BME280;46330;50.822;7.126;2022-08-19T11:10:19;100738.09;;;32.09;35.07
9141;BME280;46330;50.822;7.126;2022-08-19T11:12:48;100740.63;;;30.48;37.64
9141;BME280;46330;50.822;7.126;2022-08-19T11:15:19;100747.34;;;29.99;38.55
9141;BME280;46330;50.822;7.126;2022-08-19T11:17:47;100738.47;;;29.52;39.60
9141;BME280;46330;50.822;7.126;2022-08-19T11:20:15;100739.34;;;30.25;38.37
9141;BME280;46330;50.822;7.126;2022-08-19T11:22:44;100734.78;;;30.08;38.50
9141;BME280;46330;50.822;7.126;2022-08-19T11:25:14;100734.88;;;29.15;40.08
9141;BME280;46330;50.822;7.126;2022-08-19T11:27:42;100734.16;;;29.22;38.70
9141;BME280;46330;50.822;7.126;2022-08-19T11:30:12;100722.88;;;29.00;39.18
9141;BME280;46330;50.822;7.126;2022-08-19T11:32:41;100730.63;;;30.13;37.18
9141;BME280;46330;50.822;7.126;2022-08-19T11:35:15;100736.13;;;30.74;36.60
9141;BME280;46330;50.822;7.126;2022-08-19T11:37:44;100729.47;;;29.61;38.66
9141;BME280;46330;50.822;7.126;2022-08-19T11:40:12;100723.84;;;29.55;38.60
9141;BME280;46330;50.822;7.126;2022-08-19T11:42:40;100728.13;;;31.08;36.01
9141;BME280;46330;50.822;7.126;2022-08-19T11:45:25;100724.00;;;31.98;34.87
9141;BME280;46330;50.822;7.126;2022-08-19T11:47:54;100722.88;;;31.07;35.79
9141;BME280;46330;50.822;7.126;2022-08-19T11:50:23;100731.84;;;31.07;36.56
9141;BME280;46330;50.822;7.126;2022-08-19T11:52:54;100724.22;;;30.67;36.23
9141;BME280;46330;50.822;7.126;2022-08-19T11:55:23;100727.28;;;30.47;36.59
9141;BME280;46330;50.822;7.126;2022-08-19T11:57:51;100722.50;;;31.02;35.87
9141;BME280;46330;50.822;7.126;2022-08-19T12:00:19;100720.66;;;31.02;35.92
9141;BME280;46330;50.822;7.126;2022-08-19T12:02:47;100730.19;;;30.53;36.86
9141;BME280;46330;50.822;7.126;2022-08-19T12:05:15;100732.31;;;29.23;39.37
9141;BME280;46330;50.822;7.126;2022-08-19T12:07:43;100730.66;;;28.93;40.30
9141;BME280;46330;50.822;7.126;2022-08-19T12:10:12;100720.63;;;28.95;40.10
9141;BME280;46330;50.822;7.126;2022-08-19T12:12:44;100720.69;;;30.14;37.54
9141;BME280;46330;50.822;7.126;2022-08-19T12:15:20;100730.13;;;30.45;36.52
9141;BME280;46330;50.822;7.126;2022-08-19T12:17:48;100721.25;;;30.35;36.86
9141;BME280;46330;50.822;7.126;2022-08-19T12:20:16;100713.16;;;29.36;38.02
9141;BME280;46330;50.822;7.126;2022-08-19T12:22:43;100721.00;;;29.10;38.49
9141;BME280;46330;50.822;7.126;2022-08-19T12:25:13;100714.22;;;28.96;38.33
9141;BME280;46330;50.822;7.126;2022-08-19T12:27:40;100709.50;;;30.09;36.45
9141;BME280;46330;50.822;7.126;2022-08-19T12:30:18;100714.84;;;30.54;36.06
9141;BME280;46330;50.822;7.126;2022-08-19T12:32:46;100710.63;;;31.20;34.75
9141;BME280;46330;50.822;7.126;2022-08-19T12:35:14;100707.25;;;32.02;33.39
9141;BME280;46330;50.822;7.126;2022-08-19T12:37:41;100709.72;;;31.71;33.52
9141;BME280;46330;50.822;7.126;2022-08-19T12:40:23;100703.44;;;31.63;32.92
9141;BME280;46330;50.822;7.126;2022-08-19T12:42:52;100707.16;;;31.70;32.91
9141;BME280;46330;50.822;7.126;2022-08-19T12:45:20;100701.69;;;29.61;37.28
9141;BME280;46330;50.822;7.126;2022-08-19T12:47:49;100701.81;;;30.67;35.98
9141;BME280;46330;50.822;7.126;2022-08-19T12:50:21;100701.16;;;31.16;35.18
9141;BME280;46330;50.822;7.126;2022-08-19T12:52:49;100698.88;;;30.60;35.69
9141;BME280;46330;50.822;7.126;2022-08-19T12:55:17;100689.53;;;30.37;35.90
9141;BME280;46330;50.822;7.126;2022-08-19T12:57:46;100684.19;;;31.06;34.57
9141;BME280;46330;50.822;7.126;2022-08-19T13:00:17;100687.44;;;31.10;34.19
9141;BME280;46330;50.822;7.126;2022-08-19T13:02:50;100689.91;;;31.29;33.72
9141;BME280;46330;50.822;7.126;2022-08-19T13:05:20;100689.41;;;31.67;32.06
9141;BME280;46330;50.822;7.126;2022-08-19T13:07:50;100679.00;;;31.96;32.03
9141;BME280;46330;50.822;7.126;2022-08-19T13:10:19;100677.56;;;31.68;32.50
9141;BME280;46330;50.822;7.126;2022-08-19T13:12:51;100688.88;;;32.06;31.90
9141;BME280;46330;50.822;7.126;2022-08-19T13:15:21;100687.38;;;32.27;30.34
9141;BME280;46330;50.822;7.126;2022-08-19T13:17:52;100684.38;;;31.72;30.97
9141;BME280;46330;50.822;7.126;2022-08-19T13:20:22;100678.13;;;31.46;31.79
9141;BME280;46330;50.822;7.126;2022-08-19T13:22:50;100677.75;;;32.57;29.91